sensor_id;sensor_type;location;lat;lon;timestamp;pressure;altitude;pressure_sealevel;temperature;humidity
63808;BME280;49961;43.970;22.868;2024-03-02T00:00:29;101183.63;;;11.08;100.00
63808;BME280;49961;43.970;22.868;2024-03-02T00:01:29;101182.34;;;11.12;100.00
63808;BME280;49961;43.970;22.868;2024-03-02T00:02:30;101180.31;;;11.16;100.00
63808;BME280;49961;43.970;22.868;2024-03-02T00:03:30;101182.28;;;11.16;100.00
63808;BME280;49961;43.970;22.868;2024-03-02T00:04:31;101192.19;;;11.17;100.00
63808;BME280;49961;43.970;22.868;2024-03-02T00:05:31;101175.38;;;11.04;100.00
63808;BME280;49961;43.970;22.868;2024-03-02T00:06:32;101188.97;;;11.18;100.00
63808;BME280;49961;43.970;22.868;2024-03-02T00:07:33;101186.66;;;11.17;100.00
63808;BME280;49961;43.970;22.868;2024-03-02T00:08:33;101181.94;;;11.14;100.00
63808;BME280;49961;43.970;22.868;2024-03-02T00:09:34;101186.00;;;11.09;100.00
63808;BME280;49961;43.970;22.868;2024-03-02T00:10:37;101191.63;;;11.02;100.00
63808;BME280;49961;43.970;22.868;2024-03-02T00:11:41;101191.34;;;10.97;100.00
63808;BME280;49961;43.970;22.868;2024-03-02T00:12:42;101118.44;;;10.50;100.00
63808;BME280;49961;43.970;22.868;2024-03-02T00:13:42;101190.56;;;10.96;100.00
63808;BME280;49961;43.970;22.868;2024-03-02T00:14:43;101197.66;;;10.97;100.00
63808;BME280;49961;43.970;22.868;2024-03-02T00:15:48;101192.13;;;10.97;100.00
63808;BME280;49961;43.970;22.868;2024-03-02T00:16:51;101188.94;;;10.99;100.00
63808;BME280;49961;43.970;22.868;2024-03-02T00:17:54;101077.25;;;10.26;100.00
63808;BME280;49961;43.970;22.868;2024-03-02T00:18:54;101187.44;;;10.94;100.00
63808;BME280;49961;43.970;22.868;2024-03-02T00:19:55;101187.44;;;10.94;100.00
63808;BME280;49961;43.970;22.868;2024-03-02T00:20:57;101183.13;;;10.90;100.00
63808;BME280;49961;43.970;22.868;2024-03-02T00:22:00;101186.69;;;10.90;100.00
63808;BME280;49961;43.970;22.868;2024-03-02T00:23:08;101192.84;;;11.01;100.00
63808;BME280;49961;43.970;22.868;2024-03-02T00:24:34;101188.88;;;11.02;100.00
63808;BME280;49961;43.970;22.868;2024-03-02T00:27:01;101172.28;;;10.99;100.00
63808;BME280;49961;43.970;22.868;2024-03-02T00:28:04;101182.13;;;11.03;100.00
63808;BME280;49961;43.970;22.868;2024-03-02T00:29:07;101187.13;;;11.12;100.00
63808;BME280;49961;43.970;22.868;2024-03-02T00:31:42;101172.00;;;10.93;100.00
63808;BME280;49961;43.970;22.868;2024-03-02T00:32:43;101173.38;;;10.82;100.00
63808;BME280;49961;43.970;22.868;2024-03-02T00:33:45;101057.94;;;10.22;100.00
63808;BME280;49961;43.970;22.868;2024-03-02T00:34:46;101167.94;;;10.98;100.00
63808;BME280;49961;43.970;22.868;2024-03-02T00:35:47;101200.34;;;11.04;100.00
63808;BME280;49961;43.970;22.868;2024-03-02T00:36:48;101177.28;;;11.07;100.00
63808;BME280;49961;43.970;22.868;2024-03-02T00:37:49;101166.63;;;11.06;100.00
63808;BME280;49961;43.970;22.868;2024-03-02T00:38:51;101159.50;;;11.05;100.00
63808;BME280;49961;43.970;22.868;2024-03-02T00:39:53;101161.78;;;11.10;100.00
63808;BME280;49961;43.970;22.868;2024-03-02T00:40:54;101147.06;;;10.90;100.00
63808;BME280;49961;43.970;22.868;2024-03-02T00:41:54;101166.19;;;11.07;100.00
63808;BME280;49961;43.970;22.868;2024-03-02T00:42:55;101174.97;;;11.06;100.00
63808;BME280;49961;43.970;22.868;2024-03-02T00:44:00;101172.22;;;11.02;100.00
63808;BME280;49961;43.970;22.868;2024-03-02T00:45:07;101177.72;;;11.06;100.00
63808;BME280;49961;43.970;22.868;2024-03-02T00:46:10;101163.63;;;10.97;100.00
63808;BME280;49961;43.970;22.868;2024-03-02T00:47:11;101167.28;;;10.90;100.00
63808;BME280;49961;43.970;22.868;2024-03-02T00:48:17;101159.50;;;10.82;100.00
63808;BME280;49961;43.970;22.868;2024-03-02T00:50:21;101163.00;;;10.86;100.00
63808;BME280;49961;43.970;22.868;2024-03-02T00:51:23;101169.75;;;10.85;100.00
63808;BME280;49961;43.970;22.868;2024-03-02T00:52:24;101164.25;;;10.81;100.00
63808;BME280;49961;43.970;22.868;2024-03-02T00:53:26;101175.75;;;10.80;100.00
63808;BME280;49961;43.970;22.868;2024-03-02T00:54:26;101166.00;;;10.72;100.00
63808;BME280;49961;43.970;22.868;2024-03-02T00:55:29;101165.63;;;10.70;100.00
63808;BME280;49961;43.970;22.868;2024-03-02T00:56:30;101166.41;;;10.70;100.00
63808;BME280;49961;43.970;22.868;2024-03-02T00:57:33;101169.19;;;10.70;100.00
63808;BME280;49961;43.970;22.868;2024-03-02T00:58:34;101156.22;;;10.64;100.00
63808;BME280;49961;43.970;22.868;2024-03-02T00:59:35;101160.69;;;10.58;100.00
63808;BME280;49961;43.970;22.868;2024-03-02T01:00:35;101162.25;;;10.59;100.00
63808;BME280;49961;43.970;22.868;2024-03-02T01:01:36;101171.63;;;10.68;100.00
63808;BME280;49961;43.970;22.868;2024-03-02T01:02:36;101167.31;;;10.64;100.00
63808;BME280;49961;43.970;22.868;2024-03-02T01:03:37;101166.13;;;10.65;100.00
63808;BME280;49961;43.970;22.868;2024-03-02T01:04:37;101164.91;;;10.66;100.00
63808;BME280;49961;43.970;22.868;2024-03-02T01:05:46;101168.56;;;10.59;100.00
63808;BME280;49961;43.970;22.868;2024-03-02T01:06:47;101168.56;;;10.59;100.00
63808;BME280;49961;43.970;22.868;2024-03-02T01:07:48;101165.88;;;10.56;100.00
63808;BME280;49961;43.970;22.868;2024-03-02T01:08:49;101159.16;;;10.53;100.00
63808;BME280;49961;43.970;22.868;2024-03-02T01:09:51;101172.22;;;10.53;100.00
63808;BME280;49961;43.970;22.868;2024-03-02T01:10:52;101176.75;;;10.43;100.00
63808;BME280;49961;43.970;22.868;2024-03-02T01:11:52;101137.41;;;10.25;100.00
63808;BME280;49961;43.970;22.868;2024-03-02T01:12:53;101166.59;;;10.33;100.00
63808;BME280;49961;43.970;22.868;2024-03-02T01:13:53;101173.22;;;10.39;100.00
63808;BME280;49961;43.970;22.868;2024-03-02T01:14:54;101168.91;;;10.38;100.00
63808;BME280;49961;43.970;22.868;2024-03-02T01:15:55;101166.81;;;10.46;100.00
63808;BME280;49961;43.970;22.868;2024-03-02T01:16:56;101173.03;;;10.53;100.00
63808;BME280;49961;43.970;22.868;2024-03-02T01:17:56;101071.06;;;9.88;100.00
63808;BME280;49961;43.970;22.868;2024-03-02T01:18:57;101167.53;;;10.50;100.00
63808;BME280;49961;43.970;22.868;2024-03-02T01:19:58;101164.38;;;10.48;100.00
63808;BME280;49961;43.970;22.868;2024-03-02T01:20:58;101161.72;;;10.41;100.00
63808;BME280;49961;43.970;22.868;2024-03-02T01:21:59;101047.59;;;9.70;100.00
63808;BME280;49961;43.970;22.868;2024-03-02T01:22:59;101169.88;;;10.51;100.00
63808;BME280;49961;43.970;22.868;2024-03-02T01:24:00;101172.56;;;10.58;100.00
63808;BME280;49961;43.970;22.868;2024-03-02T01:25:01;101172.38;;;10.69;100.00
63808;BME280;49961;43.970;22.868;2024-03-02T01:26:02;101161.66;;;10.71;100.00
63808;BME280;49961;43.970;22.868;2024-03-02T01:27:03;101172.28;;;10.76;100.00
63808;BME280;49961;43.970;22.868;2024-03-02T01:28:04;101176.19;;;10.78;100.00
63808;BME280;49961;43.970;22.868;2024-03-02T01:29:04;101173.72;;;10.84;100.00
63808;BME280;49961;43.970;22.868;2024-03-02T01:30:06;101179.28;;;10.84;100.00
63808;BME280;49961;43.970;22.868;2024-03-02T01:31:06;101174.94;;;10.83;100.00
63808;BME280;49961;43.970;22.868;2024-03-02T01:32:07;101181.63;;;10.85;100.00
63808;BME280;49961;43.970;22.868;2024-03-02T01:33:08;101178.38;;;10.90;100.00
63808;BME280;49961;43.970;22.868;2024-03-02T01:34:08;101145.06;;;10.67;100.00
63808;BME280;49961;43.970;22.868;2024-03-02T01:35:09;101164.63;;;10.83;100.00
63808;BME280;49961;43.970;22.868;2024-03-02T01:36:09;101168.91;;;10.88;100.00
63808;BME280;49961;43.970;22.868;2024-03-02T01:37:10;101167.09;;;10.78;100.00
63808;BME280;49961;43.970;22.868;2024-03-02T01:38:10;101176.97;;;10.79;100.00
63808;BME280;49961;43.970;22.868;2024-03-02T01:39:11;101142.44;;;10.60;100.00
63808;BME280;49961;43.970;22.868;2024-03-02T01:40:11;101169.06;;;10.77;100.00
63808;BME280;49961;43.970;22.868;2024-03-02T01:41:12;101173.72;;;10.84;100.00
63808;BME280;49961;43.970;22.868;2024-03-02T01:42:13;101171.63;;;10.68;100.00
63808;BME280;49961;43.970;22.868;2024-03-02T01:43:13;101168.41;;;10.70;100.00
63808;BME280;49961;43.970;22.868;2024-03-02T01:44:14;101166.13;;;10.65;100.00
63808;BME280;49961;43.970;22.868;2024-03-02T01:45:14;101168.47;;;10.66;100.00
63808;BME280;49961;43.970;22.868;2024-03-02T01:46:15;101170.13;;;10.60;100.00
63808;BME280;49961;43.970;22.868;2024-03-02T01:47:16;101161.75;;;10.64;100.00
63808;BME280;49961;43.970;22.868;2024-03-02T01:48:16;101164.59;;;10.60;100.00
63808;BME280;49961;43.970;22.868;2024-03-02T01:49:16;101168.16;;;10.61;100.00
63808;BME280;49961;43.970;22.868;2024-03-02T01:50:34;101161.66;;;10.71;100.00
63808;BME280;49961;43.970;22.868;2024-03-02T01:51:34;101163.16;;;10.75;100.00
63808;BME280;49961;43.970;22.868;2024-03-02T01:52:35;101171.44;;;10.79;100.00
63808;BME280;49961;43.970;22.868;2024-03-02T01:53:35;101166.69;;;10.79;100.00
63808;BME280;49961;43.970;22.868;2024-03-02T01:54:36;101164.66;;;10.80;100.00
63808;BME280;49961;43.970;22.868;2024-03-02T01:55:37;101167.09;;;10.78;100.00
63808;BME280;49961;43.970;22.868;2024-03-02T01:56:37;101167.81;;;10.82;100.00
63808;BME280;49961;43.970;22.868;2024-03-02T01:57:38;101167.44;;;10.80;100.00
63808;BME280;49961;43.970;22.868;2024-03-02T01:58:39;101162.69;;;10.80;100.00
63808;BME280;49961;43.970;22.868;2024-03-02T01:59:39;101170.19;;;10.83;100.00
63808;BME280;49961;43.970;22.868;2024-03-02T02:00:40;101167.41;;;10.83;100.00
63808;BME280;49961;43.970;22.868;2024-03-02T02:01:40;101172.47;;;10.88;100.00
63808;BME280;49961;43.970;22.868;2024-03-02T02:02:41;101172.47;;;10.88;100.00
63808;BME280;49961;43.970;22.868;2024-03-02T02:03:42;101168.50;;;10.89;100.00
63808;BME280;49961;43.970;22.868;2024-03-02T02:04:43;101172.47;;;10.88;100.00
63808;BME280;49961;43.970;22.868;2024-03-02T02:05:44;101166.50;;;10.90;100.00
63808;BME280;49961;43.970;22.868;2024-03-02T02:06:46;101171.63;;;10.91;100.00
63808;BME280;49961;43.970;22.868;2024-03-02T02:07:46;101170.78;;;10.94;100.00
63808;BME280;49961;43.970;22.868;2024-03-02T02:08:47;101167.53;;;10.99;100.00
63808;BME280;49961;43.970;22.868;2024-03-02T02:09:48;101171.13;;;10.96;100.00
63808;BME280;49961;43.970;22.868;2024-03-02T02:10:48;101173.91;;;10.96;100.00
63808;BME280;49961;43.970;22.868;2024-03-02T02:11:50;101166.81;;;10.95;100.00
63808;BME280;49961;43.970;22.868;2024-03-02T02:12:51;101171.13;;;10.96;100.00
63808;BME280;49961;43.970;22.868;2024-03-02T02:13:51;101175.53;;;10.94;100.00
63808;BME280;49961;43.970;22.868;2024-03-02T02:14:52;101169.56;;;10.95;100.00
63808;BME280;49961;43.970;22.868;2024-03-02T02:15:52;101171.19;;;10.93;100.00
63808;BME280;49961;43.970;22.868;2024-03-02T02:16:53;101179.31;;;10.80;100.00
63808;BME280;49961;43.970;22.868;2024-03-02T02:17:54;101006.41;;;9.75;100.00
63808;BME280;49961;43.970;22.868;2024-03-02T02:18:55;101165.63;;;10.70;100.00
63808;BME280;49961;43.970;22.868;2024-03-02T02:19:56;101164.84;;;10.69;100.00
63808;BME280;49961;43.970;22.868;2024-03-02T02:20:56;101165.63;;;10.70;100.00
63808;BME280;49961;43.970;22.868;2024-03-02T02:21:57;101164.38;;;10.74;100.00
63808;BME280;49961;43.970;22.868;2024-03-02T02:23:04;101167.50;;;10.76;100.00
63808;BME280;49961;43.970;22.868;2024-03-02T02:24:10;101175.47;;;10.74;100.00
63808;BME280;49961;43.970;22.868;2024-03-02T02:25:10;101160.47;;;10.72;100.00
63808;BME280;49961;43.970;22.868;2024-03-02T02:26:11;101163.72;;;10.67;100.00
63808;BME280;49961;43.970;22.868;2024-03-02T02:27:11;101162.25;;;10.59;100.00
63808;BME280;49961;43.970;22.868;2024-03-02T02:28:15;101162.75;;;10.50;100.00
63808;BME280;49961;43.970;22.868;2024-03-02T02:29:15;101160.00;;;10.50;100.00
63808;BME280;49961;43.970;22.868;2024-03-02T02:30:21;101160.41;;;10.49;100.00
63808;BME280;49961;43.970;22.868;2024-03-02T02:31:21;101158.09;;;10.44;100.00
63808;BME280;49961;43.970;22.868;2024-03-02T02:32:22;101155.88;;;10.35;100.00
63808;BME280;49961;43.970;22.868;2024-03-02T02:33:22;101162.25;;;10.32;100.00
63808;BME280;49961;43.970;22.868;2024-03-02T02:34:23;101159.03;;;10.37;100.00
63808;BME280;49961;43.970;22.868;2024-03-02T02:35:24;101162.25;;;10.32;100.00
63808;BME280;49961;43.970;22.868;2024-03-02T02:36:24;101154.09;;;10.22;100.00
63808;BME280;49961;43.970;22.868;2024-03-02T02:37:25;101164.75;;;10.23;100.00
63808;BME280;49961;43.970;22.868;2024-03-02T02:38:25;101163.25;;;10.19;100.00
63808;BME280;49961;43.970;22.868;2024-03-02T02:39:26;101163.72;;;10.14;100.00
63808;BME280;49961;43.970;22.868;2024-03-02T02:40:27;101046.84;;;9.36;100.00
63808;BME280;49961;43.970;22.868;2024-03-02T02:41:30;101160.56;;;10.12;100.00
63808;BME280;49961;43.970;22.868;2024-03-02T02:42:31;101136.53;;;10.02;100.00
63808;BME280;49961;43.970;22.868;2024-03-02T02:43:31;101149.00;;;10.17;100.00
63808;BME280;49961;43.970;22.868;2024-03-02T02:44:32;101048.75;;;9.42;100.00
63808;BME280;49961;43.970;22.868;2024-03-02T02:45:32;101163.25;;;10.19;100.00
63808;BME280;49961;43.970;22.868;2024-03-02T02:46:33;101113.84;;;9.84;100.00
63808;BME280;49961;43.970;22.868;2024-03-02T02:47:33;101164.88;;;10.13;100.00
63808;BME280;49961;43.970;22.868;2024-03-02T02:48:35;101168.44;;;10.13;100.00
63808;BME280;49961;43.970;22.868;2024-03-02T02:49:36;101065.22;;;9.53;100.00
63808;BME280;49961;43.970;22.868;2024-03-02T02:50:36;101165.22;;;10.18;100.00
63808;BME280;49961;43.970;22.868;2024-03-02T02:51:37;101102.38;;;9.82;100.00
63808;BME280;49961;43.970;22.868;2024-03-02T02:52:39;101172.84;;;10.11;100.00
63808;BME280;49961;43.970;22.868;2024-03-02T02:53:40;101153.44;;;10.11;100.00
63808;BME280;49961;43.970;22.868;2024-03-02T02:54:41;101165.00;;;10.06;100.00
63808;BME280;49961;43.970;22.868;2024-03-02T02:55:41;101159.13;;;9.97;100.00
63808;BME280;49961;43.970;22.868;2024-03-02T02:56:43;101168.75;;;9.85;100.00
63808;BME280;49961;43.970;22.868;2024-03-02T02:57:44;101156.97;;;9.81;100.00
63808;BME280;49961;43.970;22.868;2024-03-02T02:58:45;101163.31;;;9.78;100.00
63808;BME280;49961;43.970;22.868;2024-03-02T02:59:46;101118.97;;;9.52;100.00
63808;BME280;49961;43.970;22.868;2024-03-02T03:00:47;101159.28;;;9.86;100.00
63808;BME280;49961;43.970;22.868;2024-03-02T03:01:47;101164.06;;;9.82;100.00
63808;BME280;49961;43.970;22.868;2024-03-02T03:02:49;101159.41;;;9.76;100.00
63808;BME280;49961;43.970;22.868;2024-03-02T03:03:49;101160.28;;;9.69;100.00
63808;BME280;49961;43.970;22.868;2024-03-02T03:04:50;101153.25;;;9.61;100.00
63808;BME280;49961;43.970;22.868;2024-03-02T03:05:50;101136.72;;;9.54;100.00
63808;BME280;49961;43.970;22.868;2024-03-02T03:06:51;101164.19;;;9.75;100.00
63808;BME280;49961;43.970;22.868;2024-03-02T03:07:51;101158.94;;;9.81;100.00
63808;BME280;49961;43.970;22.868;2024-03-02T03:08:52;101162.13;;;9.79;100.00
63808;BME280;49961;43.970;22.868;2024-03-02T03:09:52;101159.00;;;9.77;100.00
63808;BME280;49961;43.970;22.868;2024-03-02T03:10:53;101164.47;;;9.81;100.00
63808;BME280;49961;43.970;22.868;2024-03-02T03:11:54;101145.84;;;9.85;100.00
63808;BME280;49961;43.970;22.868;2024-03-02T03:12:54;101158.94;;;9.81;100.00
63808;BME280;49961;43.970;22.868;2024-03-02T03:13:56;101159.75;;;9.81;100.00
63808;BME280;49961;43.970;22.868;2024-03-02T03:14:57;101157.03;;;9.78;100.00
63808;BME280;49961;43.970;22.868;2024-03-02T03:15:57;101134.94;;;9.71;100.00
63808;BME280;49961;43.970;22.868;2024-03-02T03:16:58;101152.66;;;9.80;100.00
63808;BME280;49961;43.970;22.868;2024-03-02T03:17:58;101159.31;;;9.83;100.00
63808;BME280;49961;43.970;22.868;2024-03-02T03:18:59;101157.03;;;9.74;100.00
63808;BME280;49961;43.970;22.868;2024-03-02T03:19:59;101158.25;;;9.73;100.00
63808;BME280;49961;43.970;22.868;2024-03-02T03:21:01;101148.28;;;9.79;100.00
63808;BME280;49961;43.970;22.868;2024-03-02T03:22:01;101105.22;;;9.45;100.00
63808;BME280;49961;43.970;22.868;2024-03-02T03:23:02;101152.25;;;9.78;100.00
63808;BME280;49961;43.970;22.868;2024-03-02T03:24:04;101143.25;;;9.71;100.00
63808;BME280;49961;43.970;22.868;2024-03-02T03:25:05;101153.91;;;9.72;100.00
63808;BME280;49961;43.970;22.868;2024-03-02T03:26:06;101153.50;;;9.74;100.00
63808;BME280;49961;43.970;22.868;2024-03-02T03:27:06;101153.09;;;9.75;100.00
63808;BME280;49961;43.970;22.868;2024-03-02T03:28:07;101150.00;;;9.70;100.00
63808;BME280;49961;43.970;22.868;2024-03-02T03:29:10;101146.53;;;9.62;100.00
63808;BME280;49961;43.970;22.868;2024-03-02T03:30:10;101147.22;;;9.70;100.00
63808;BME280;49961;43.970;22.868;2024-03-02T03:31:11;101143.75;;;9.62;100.00
63808;BME280;49961;43.970;22.868;2024-03-02T03:32:11;101154.72;;;9.73;100.00
63808;BME280;49961;43.970;22.868;2024-03-02T03:33:12;101151.94;;;9.73;100.00
63808;BME280;49961;43.970;22.868;2024-03-02T03:34:13;101102.47;;;9.45;100.00
63808;BME280;49961;43.970;22.868;2024-03-02T03:35:16;101150.41;;;9.68;100.00
63808;BME280;49961;43.970;22.868;2024-03-02T03:36:16;101154.72;;;9.69;100.00
63808;BME280;49961;43.970;22.868;2024-03-02T03:37:17;101076.66;;;9.21;100.00
63808;BME280;49961;43.970;22.868;2024-03-02T03:38:17;101141.53;;;9.50;100.00
63808;BME280;49961;43.970;22.868;2024-03-02T03:39:18;101139.84;;;9.60;100.00
63808;BME280;49961;43.970;22.868;2024-03-02T03:40:18;101150.81;;;9.67;100.00
63808;BME280;49961;43.970;22.868;2024-03-02T03:41:22;101146.06;;;9.67;100.00
63808;BME280;49961;43.970;22.868;2024-03-02T03:42:23;101147.22;;;9.70;100.00
63808;BME280;49961;43.970;22.868;2024-03-02T03:43:23;101147.19;;;9.73;100.00
63808;BME280;49961;43.970;22.868;2024-03-02T03:44:24;100979.75;;;8.61;100.00
63808;BME280;49961;43.970;22.868;2024-03-02T03:45:24;101036.66;;;8.96;100.00
63808;BME280;49961;43.970;22.868;2024-03-02T03:46:26;101152.06;;;9.62;100.00
63808;BME280;49961;43.970;22.868;2024-03-02T03:47:26;101150.56;;;9.54;100.00
63808;BME280;49961;43.970;22.868;2024-03-02T03:48:27;101145.47;;;9.49;100.00
63808;BME280;49961;43.970;22.868;2024-03-02T03:49:30;101144.72;;;9.49;100.00
63808;BME280;49961;43.970;22.868;2024-03-02T03:50:31;101128.66;;;9.37;100.00
63808;BME280;49961;43.970;22.868;2024-03-02T03:51:31;101141.19;;;9.45;100.00
63808;BME280;49961;43.970;22.868;2024-03-02T03:52:32;101138.78;;;9.47;100.00
63808;BME280;49961;43.970;22.868;2024-03-02T03:53:32;101152.50;;;9.57;100.00
63808;BME280;49961;43.970;22.868;2024-03-02T03:54:33;101152.84;;;9.63;100.00
63808;BME280;49961;43.970;22.868;2024-03-02T03:55:33;101153.66;;;9.60;100.00
63808;BME280;49961;43.970;22.868;2024-03-02T03:56:34;101151.31;;;9.58;100.00
63808;BME280;49961;43.970;22.868;2024-03-02T03:57:34;101158.84;;;9.58;100.00
63808;BME280;49961;43.970;22.868;2024-03-02T03:58:35;101146.56;;;9.59;100.00
63808;BME280;49961;43.970;22.868;2024-03-02T03:59:35;101152.09;;;9.59;100.00
63808;BME280;49961;43.970;22.868;2024-03-02T04:00:37;101154.53;;;9.53;100.00
63808;BME280;49961;43.970;22.868;2024-03-02T04:01:38;101160.09;;;9.50;100.00
63808;BME280;49961;43.970;22.868;2024-03-02T04:02:38;101158.84;;;9.54;100.00
63808;BME280;49961;43.970;22.868;2024-03-02T04:03:39;101165.19;;;9.55;100.00
63808;BME280;49961;43.970;22.868;2024-03-02T04:04:39;101141.22;;;9.41;100.00
63808;BME280;49961;43.970;22.868;2024-03-02T04:05:40;101161.25;;;9.52;100.00
63808;BME280;49961;43.970;22.868;2024-03-02T04:06:40;101165.22;;;9.51;100.00
63808;BME280;49961;43.970;22.868;2024-03-02T04:07:41;101162.88;;;9.50;100.00
63808;BME280;49961;43.970;22.868;2024-03-02T04:08:43;101065.16;;;8.89;100.00
63808;BME280;49961;43.970;22.868;2024-03-02T04:09:43;101164.81;;;9.53;100.00
63808;BME280;49961;43.970;22.868;2024-03-02T04:10:44;101106.66;;;9.23;100.00
63808;BME280;49961;43.970;22.868;2024-03-02T04:11:44;101168.31;;;9.57;100.00
63808;BME280;49961;43.970;22.868;2024-03-02T04:12:45;101171.47;;;9.59;100.00
63808;BME280;49961;43.970;22.868;2024-03-02T04:13:46;101173.03;;;9.60;100.00
63808;BME280;49961;43.970;22.868;2024-03-02T04:14:47;101166.66;;;9.66;100.00
63808;BME280;49961;43.970;22.868;2024-03-02T04:15:47;101168.31;;;9.57;100.00
63808;BME280;49961;43.970;22.868;2024-03-02T04:16:48;101172.28;;;9.56;100.00
63808;BME280;49961;43.970;22.868;2024-03-02T04:17:48;101170.28;;;9.60;100.00
63808;BME280;49961;43.970;22.868;2024-03-02T04:18:49;101086.34;;;9.03;100.00
63808;BME280;49961;43.970;22.868;2024-03-02T04:19:49;101176.63;;;9.57;100.00
63808;BME280;49961;43.970;22.868;2024-03-02T04:20:50;101171.53;;;9.52;100.00
63808;BME280;49961;43.970;22.868;2024-03-02T04:21:50;101175.84;;;9.56;100.00
63808;BME280;49961;43.970;22.868;2024-03-02T04:22:51;101171.13;;;9.53;100.00
63808;BME280;49961;43.970;22.868;2024-03-02T04:23:51;101179.03;;;9.55;100.00
63808;BME280;49961;43.970;22.868;2024-03-02T04:24:52;101148.72;;;9.41;100.00
63808;BME280;49961;43.970;22.868;2024-03-02T04:25:53;101159.44;;;9.39;100.00
63808;BME280;49961;43.970;22.868;2024-03-02T04:26:53;101176.69;;;9.50;100.00
63808;BME280;49961;43.970;22.868;2024-03-02T04:27:54;101173.13;;;9.49;100.00
63808;BME280;49961;43.970;22.868;2024-03-02T04:28:54;101080.25;;;8.78;100.00
63808;BME280;49961;43.970;22.868;2024-03-02T04:29:55;101164.59;;;9.37;100.00
63808;BME280;49961;43.970;22.868;2024-03-02T04:30:55;101182.34;;;9.39;100.00
63808;BME280;49961;43.970;22.868;2024-03-02T04:31:56;101176.88;;;9.32;100.00
63808;BME280;49961;43.970;22.868;2024-03-02T04:32:56;101180.81;;;9.35;100.00
63808;BME280;49961;43.970;22.868;2024-03-02T04:33:57;101183.97;;;9.37;100.00
63808;BME280;49961;43.970;22.868;2024-03-02T04:34:57;101179.56;;;9.43;100.00
63808;BME280;49961;43.970;22.868;2024-03-02T04:35:58;101182.28;;;9.46;100.00
63808;BME280;49961;43.970;22.868;2024-03-02T04:36:58;101184.56;;;9.55;100.00
63808;BME280;49961;43.970;22.868;2024-03-02T04:37:59;101179.72;;;9.62;100.00
63808;BME280;49961;43.970;22.868;2024-03-02T04:39:01;101187.28;;;9.58;100.00
63808;BME280;49961;43.970;22.868;2024-03-02T04:40:02;101181.38;;;9.56;100.00
63808;BME280;49961;43.970;22.868;2024-03-02T04:41:03;101184.19;;;9.53;100.00
63808;BME280;49961;43.970;22.868;2024-03-02T04:42:04;101184.09;;;9.60;100.00
63808;BME280;49961;43.970;22.868;2024-03-02T04:43:05;101184.47;;;9.62;100.00
63808;BME280;49961;43.970;22.868;2024-03-02T04:44:05;101189.16;;;9.68;100.00
63808;BME280;49961;43.970;22.868;2024-03-02T04:45:08;101178.53;;;9.63;100.00
63808;BME280;49961;43.970;22.868;2024-03-02T04:46:08;101193.94;;;9.64;100.00
63808;BME280;49961;43.970;22.868;2024-03-02T04:47:09;101095.31;;;9.14;100.00
63808;BME280;49961;43.970;22.868;2024-03-02T04:48:09;101193.38;;;9.80;100.00
63808;BME280;49961;43.970;22.868;2024-03-02T04:49:10;101194.28;;;9.70;100.00
63808;BME280;49961;43.970;22.868;2024-03-02T04:50:10;101185.97;;;9.70;100.00
63808;BME280;49961;43.970;22.868;2024-03-02T04:51:11;101195.06;;;9.70;100.00
63808;BME280;49961;43.970;22.868;2024-03-02T04:52:12;101197.38;;;9.75;100.00
63808;BME280;49961;43.970;22.868;2024-03-02T04:53:12;101192.16;;;9.81;100.00
63808;BME280;49961;43.970;22.868;2024-03-02T04:54:13;101152.22;;;9.48;100.00
63808;BME280;49961;43.970;22.868;2024-03-02T04:55:14;101198.94;;;9.76;100.00
63808;BME280;49961;43.970;22.868;2024-03-02T04:56:50;101193.78;;;9.78;100.00
63808;BME280;49961;43.970;22.868;2024-03-02T04:57:51;101195.78;;;9.78;100.00
63808;BME280;49961;43.970;22.868;2024-03-02T04:58:54;101181.13;;;9.77;100.00
63808;BME280;49961;43.970;22.868;2024-03-02T04:59:55;101191.75;;;9.82;100.00
63808;BME280;49961;43.970;22.868;2024-03-02T05:00:55;101190.69;;;9.73;100.00
63808;BME280;49961;43.970;22.868;2024-03-02T05:01:56;101199.00;;;9.69;100.00
63808;BME280;49961;43.970;22.868;2024-03-02T05:02:58;101198.59;;;9.71;100.00
63808;BME280;49961;43.970;22.868;2024-03-02T05:03:58;101201.75;;;9.73;100.00
63808;BME280;49961;43.970;22.868;2024-03-02T05:04:59;101195.84;;;9.71;100.00
63808;BME280;49961;43.970;22.868;2024-03-02T05:05:59;101197.50;;;9.65;100.00
63808;BME280;49961;43.970;22.868;2024-03-02T05:07:00;101188.84;;;9.59;100.00
63808;BME280;49961;43.970;22.868;2024-03-02T05:08:00;101199.47;;;9.64;100.00
63808;BME280;49961;43.970;22.868;2024-03-02T05:09:01;101176.69;;;9.50;100.00
63808;BME280;49961;43.970;22.868;2024-03-02T05:10:01;101200.72;;;9.60;100.00
63808;BME280;49961;43.970;22.868;2024-03-02T05:11:02;101196.03;;;9.53;100.00
63808;BME280;49961;43.970;22.868;2024-03-02T05:12:21;101196.56;;;9.41;100.00
63808;BME280;49961;43.970;22.868;2024-03-02T05:13:40;101201.56;;;9.53;100.00
63808;BME280;49961;43.970;22.868;2024-03-02T05:14:41;101198.75;;;9.57;100.00
63808;BME280;49961;43.970;22.868;2024-03-02T05:15:41;101204.28;;;9.60;100.00
63808;BME280;49961;43.970;22.868;2024-03-02T05:16:43;101200.00;;;9.52;100.00
63808;BME280;49961;43.970;22.868;2024-03-02T05:17:44;101202.28;;;9.61;100.00
63808;BME280;49961;43.970;22.868;2024-03-02T05:18:44;101206.19;;;9.63;100.00